createdAt,value
2019-02-05T00:02:24.265Z,3.63
2019-02-05T00:04:55.491Z,4.33
2019-02-05T00:07:26.740Z,4.07
2019-02-05T00:09:58.009Z,4.63
2019-02-05T00:12:29.123Z,3.80
2019-02-05T00:15:00.384Z,4.03
2019-02-05T00:17:31.687Z,4.23
2019-02-05T00:20:02.995Z,4.50
2019-02-05T00:22:34.242Z,3.70
2019-02-05T00:25:06.020Z,3.70
2019-02-05T00:27:37.290Z,4.23
2019-02-05T00:30:09.101Z,4.27
2019-02-05T00:32:40.529Z,4.53
2019-02-05T00:35:12.173Z,4.00
2019-02-05T00:37:43.416Z,5.20
2019-02-05T00:40:15.685Z,6.60
2019-02-05T00:42:46.919Z,6.60
2019-02-05T00:45:18.879Z,7.93
2019-02-05T00:47:50.323Z,8.77
2019-02-05T00:50:22.064Z,7.10
2019-02-05T00:52:53.284Z,5.97
2019-02-05T00:55:24.547Z,6.37
2019-02-05T01:00:30.864Z,5.50
2019-02-05T01:03:02.507Z,5.70
2019-02-05T01:05:33.744Z,5.87
2019-02-05T01:08:05.003Z,5.40
2019-02-05T01:10:36.333Z,6.33
2019-02-05T01:13:07.729Z,5.80
2019-02-05T01:15:39.005Z,6.00
2019-02-05T01:18:10.652Z,6.50
2019-02-05T01:20:41.921Z,6.33
2019-02-05T01:23:13.173Z,5.43
2019-02-05T01:25:44.450Z,6.10
2019-02-05T01:28:15.601Z,5.77
2019-02-05T01:30:46.860Z,6.17
2019-02-05T01:33:17.996Z,6.50
2019-02-05T01:35:49.705Z,6.07
2019-02-05T01:38:20.931Z,6.97
2019-02-05T01:40:52.213Z,6.23
2019-02-05T01:43:23.348Z,7.33
2019-02-05T01:45:54.636Z,6.33
2019-02-05T01:48:25.883Z,5.63
2019-02-05T01:50:57.143Z,7.03
2019-02-05T01:53:28.326Z,6.43
2019-02-05T01:55:59.410Z,6.90
2019-02-05T01:58:30.724Z,7.43
2019-02-05T02:01:01.931Z,5.90
2019-02-05T02:03:33.356Z,6.10
2019-02-05T02:06:04.762Z,7.50
2019-02-05T02:08:36.076Z,7.17
2019-02-05T02:11:07.339Z,7.03
2019-02-05T02:13:38.727Z,7.00
2019-02-05T02:16:09.873Z,7.40
2019-02-05T02:18:41.165Z,7.40
2019-02-05T02:21:12.373Z,7.20
2019-02-05T02:23:43.907Z,7.43
2019-02-05T02:26:15.123Z,7.77
2019-02-05T02:28:46.605Z,7.57
2019-02-05T02:31:17.839Z,8.00
2019-02-05T02:33:49.107Z,6.63
2019-02-05T02:36:20.316Z,8.13
2019-02-05T02:38:51.512Z,6.70
2019-02-05T02:41:23.105Z,8.20
2019-02-05T02:43:54.393Z,8.10
2019-02-05T02:46:25.671Z,8.10
2019-02-05T02:48:56.924Z,7.57
2019-02-05T02:51:28.147Z,8.73
2019-02-05T02:53:59.754Z,8.10
2019-02-05T02:56:31.057Z,8.80
2019-02-05T02:59:02.366Z,8.40
2019-02-05T03:01:33.599Z,8.17
2019-02-05T03:04:04.942Z,8.13
2019-02-05T03:06:36.306Z,8.23
2019-02-05T03:09:11.031Z,8.03
2019-02-05T03:11:42.310Z,7.23
2019-02-05T03:14:13.565Z,9.37
2019-02-05T03:16:44.815Z,8.60
2019-02-05T03:19:16.067Z,8.70
2019-02-05T03:21:47.654Z,9.57
2019-02-05T03:24:18.852Z,7.70
2019-02-05T03:26:50.027Z,8.03
2019-02-05T03:29:21.318Z,9.60
2019-02-05T03:31:52.604Z,8.80
2019-02-05T03:34:23.872Z,10.10
2019-02-05T03:36:55.224Z,7.80
2019-02-05T03:39:26.789Z,8.70
2019-02-05T03:41:58.003Z,9.43
2019-02-05T03:44:29.267Z,9.30
2019-02-05T03:47:00.516Z,10.10
2019-02-05T03:49:32.884Z,9.67
2019-02-05T03:52:44.001Z,9.07
2019-02-05T03:55:55.549Z,9.47
2019-02-05T03:59:07.110Z,9.00
2019-02-05T04:02:32.616Z,9.30
2019-02-05T04:06:16.537Z,9.97
2019-02-05T04:09:33.217Z,9.37
2019-02-05T04:12:54.160Z,11.10
2019-02-05T04:15:56.925Z,10.40
2019-02-05T04:19:16.536Z,10.70
2019-02-05T04:22:21.510Z,11.10
2019-02-05T04:25:59.424Z,10.00
2019-02-05T04:29:22.956Z,10.07
2019-02-05T04:32:58.937Z,10.60
2019-02-05T04:36:24.515Z,10.43
2019-02-05T04:39:35.692Z,11.03
2019-02-05T04:42:36.120Z,11.47
2019-02-05T04:45:51.712Z,11.27
2019-02-05T04:49:40.583Z,12.27
2019-02-05T04:53:25.394Z,13.20
2019-02-05T04:56:35.024Z,13.20
2019-02-05T05:00:08.556Z,14.07
2019-02-05T05:03:23.013Z,12.20
2019-02-05T05:06:26.004Z,14.47
2019-02-05T05:09:36.950Z,12.40
2019-02-05T05:12:08.198Z,14.00
2019-02-05T05:14:39.488Z,13.27
2019-02-05T05:17:10.738Z,13.60
2019-02-05T05:19:42.125Z,15.37
2019-02-05T05:22:13.671Z,14.87
2019-02-05T05:24:45.891Z,14.17
2019-02-05T05:27:20.336Z,15.40
2019-02-05T05:29:52.785Z,14.40
2019-02-05T05:32:24.123Z,15.40
2019-02-05T05:34:55.284Z,14.67
2019-02-05T05:37:26.425Z,14.33
2019-02-05T05:39:57.845Z,14.80
2019-02-05T05:42:29.277Z,14.40
2019-02-05T05:45:00.560Z,15.83
2019-02-05T05:47:31.787Z,17.60
2019-02-05T05:50:03.060Z,15.70
2019-02-05T05:52:34.292Z,15.90
2019-02-05T05:55:06.089Z,16.87
2019-02-05T05:57:37.283Z,18.50
2019-02-05T06:00:13.592Z,17.07
2019-02-05T06:02:44.750Z,15.60
2019-02-05T06:05:19.448Z,16.07
2019-02-05T06:07:50.775Z,18.03
2019-02-05T06:10:22.132Z,16.27
2019-02-05T06:12:53.455Z,16.27
2019-02-05T06:15:24.736Z,18.70
2019-02-05T06:17:56.035Z,17.00
2019-02-05T06:20:27.299Z,16.70
2019-02-05T06:22:58.627Z,19.50
2019-02-05T06:25:29.920Z,17.63
2019-02-05T06:28:01.189Z,19.17
2019-02-05T06:30:32.374Z,17.07
2019-02-05T06:33:03.729Z,22.07
2019-02-05T06:35:35.331Z,20.53
2019-02-05T06:38:06.824Z,20.23
2019-02-05T06:40:38.087Z,17.10
2019-02-05T06:43:09.379Z,20.37
2019-02-05T06:45:41.584Z,19.80
2019-02-05T06:48:13.230Z,19.57
2019-02-05T06:50:44.468Z,18.60
2019-02-05T06:53:15.849Z,19.30
2019-02-05T06:55:47.070Z,19.80
2019-02-05T06:58:18.276Z,21.50
2019-02-05T07:00:49.563Z,20.13
2019-02-05T07:03:21.155Z,21.47
2019-02-05T07:05:52.493Z,21.90
2019-02-05T07:08:23.784Z,20.10
2019-02-05T07:10:55.395Z,19.70
2019-02-05T07:13:26.739Z,22.30
2019-02-05T07:15:58.148Z,20.57
2019-02-05T07:18:29.467Z,22.43
2019-02-05T07:21:00.793Z,21.87
2019-02-05T07:23:32.168Z,22.90
2019-02-05T07:26:03.519Z,21.37
2019-02-05T07:28:34.847Z,21.70
2019-02-05T07:31:07.171Z,21.90
2019-02-05T07:33:38.497Z,22.73
2019-02-05T07:36:09.913Z,23.47
2019-02-05T07:38:41.237Z,21.97
2019-02-05T07:41:12.500Z,22.23
2019-02-05T07:43:43.835Z,22.57
2019-02-05T07:46:15.667Z,22.67
2019-02-05T07:48:46.996Z,22.80
2019-02-05T07:51:18.296Z,20.13
2019-02-05T07:53:49.630Z,21.47
2019-02-05T07:56:20.968Z,23.37
2019-02-05T07:58:52.267Z,19.43
2019-02-05T08:01:23.515Z,21.50
2019-02-05T08:03:54.845Z,20.57
2019-02-05T08:06:26.169Z,25.43
2019-02-05T08:08:57.514Z,23.10
2019-02-05T08:11:28.883Z,22.77
2019-02-05T08:14:00.602Z,23.97
2019-02-05T08:16:33.970Z,22.40
2019-02-05T08:19:05.085Z,22.77
2019-02-05T08:21:36.553Z,22.83
2019-02-05T08:24:08.394Z,22.90
2019-02-05T08:26:39.758Z,21.63
2019-02-05T08:29:21.406Z,23.67
2019-02-05T08:31:44.435Z,22.57
2019-02-05T08:34:15.732Z,22.30
2019-02-05T08:36:47.065Z,21.30
2019-02-05T08:39:18.364Z,21.43
2019-02-05T08:41:49.734Z,22.63
2019-02-05T08:44:20.982Z,23.00
2019-02-05T08:46:52.357Z,22.47
2019-02-05T08:49:23.656Z,23.17
2019-02-05T08:51:55.001Z,23.47
2019-02-05T08:54:26.226Z,24.87
2019-02-05T08:56:58.141Z,22.20
2019-02-05T08:59:29.456Z,22.47
2019-02-05T09:02:00.923Z,24.10
2019-02-05T09:04:32.228Z,26.07
2019-02-05T09:10:32.725Z,23.50
2019-02-05T09:13:04.555Z,21.80
2019-02-05T09:15:36.172Z,22.90
2019-02-05T09:18:08.099Z,23.23
2019-02-05T09:20:39.655Z,21.43
2019-02-05T09:23:13.992Z,20.03
2019-02-05T09:25:43.810Z,19.17
2019-02-05T09:28:18.820Z,19.40
2019-02-05T09:30:49.742Z,20.03
2019-02-05T09:33:21.139Z,20.00
2019-02-05T09:35:52.435Z,20.80
2019-02-05T09:38:23.733Z,18.53
2019-02-05T09:40:55.071Z,20.70
2019-02-05T09:43:26.441Z,18.10
2019-02-05T09:45:57.851Z,20.47
2019-02-05T09:48:29.177Z,22.77
2019-02-05T09:51:00.507Z,16.90
2019-02-05T09:53:31.829Z,18.77
2019-02-05T09:56:03.544Z,18.70
2019-02-05T09:58:34.843Z,20.20
2019-02-05T10:01:07.159Z,21.90
2019-02-05T10:03:38.488Z,20.63
2019-02-05T10:06:09.818Z,21.27
2019-02-05T10:08:41.117Z,19.77
2019-02-05T10:11:12.442Z,20.07
2019-02-05T10:13:43.685Z,21.43
2019-02-05T10:16:15.007Z,21.33
2019-02-05T10:18:46.330Z,22.67
2019-02-05T10:21:17.632Z,19.73
2019-02-05T10:23:49.327Z,21.87
2019-02-05T10:26:20.640Z,21.97
2019-02-05T10:28:52.122Z,20.30
2019-02-05T10:31:23.445Z,21.57
2019-02-05T10:33:55.529Z,20.93
2019-02-05T10:36:26.963Z,21.67
2019-02-05T10:38:58.199Z,21.77
2019-02-05T10:41:29.603Z,19.90
2019-02-05T10:44:00.891Z,18.80
2019-02-05T10:46:32.226Z,20.97
2019-02-05T10:49:03.796Z,20.93
2019-02-05T10:51:35.503Z,18.33
2019-02-05T10:54:07.243Z,19.50
2019-02-05T10:56:38.532Z,20.70
2019-02-05T10:59:09.863Z,18.93
2019-02-05T11:01:41.175Z,19.57
2019-02-05T11:04:12.636Z,18.13
2019-02-05T11:06:43.917Z,18.37
2019-02-05T11:09:15.399Z,19.40
2019-02-05T11:11:56.314Z,18.90
2019-02-05T11:14:27.684Z,21.37
2019-02-05T11:16:58.920Z,20.43
2019-02-05T11:19:31.436Z,19.87
2019-02-05T11:22:02.711Z,21.17
2019-02-05T11:24:34.099Z,20.27
2019-02-05T11:27:05.491Z,20.93
2019-02-05T11:29:36.794Z,21.30
2019-02-05T11:32:08.443Z,20.43
2019-02-05T11:34:39.751Z,21.67
2019-02-05T11:37:11.056Z,20.37
2019-02-05T11:39:42.395Z,19.80
2019-02-05T11:42:13.699Z,22.13
2019-02-05T11:44:44.964Z,20.63
2019-02-05T11:47:16.482Z,21.43
2019-02-05T11:49:47.815Z,20.77
2019-02-05T11:52:19.120Z,22.47
2019-02-05T11:54:50.462Z,21.80
2019-02-05T11:57:21.783Z,19.43
2019-02-05T11:59:53.399Z,19.70
2019-02-05T12:02:24.734Z,20.77
2019-02-05T12:04:56.164Z,19.97
2019-02-05T12:07:27.381Z,21.30
2019-02-05T12:09:59.242Z,22.00
2019-02-05T12:12:30.574Z,19.50
2019-02-05T12:15:01.907Z,19.50
2019-02-05T12:17:33.205Z,22.17
2019-02-05T12:20:05.111Z,19.60
2019-02-05T12:22:36.439Z,18.30
2019-02-05T12:25:11.963Z,17.03
2019-02-05T12:27:43.573Z,18.07
2019-02-05T12:30:26.176Z,17.20
2019-02-05T12:32:57.786Z,18.43
2019-02-05T12:35:29.212Z,15.97
2019-02-05T12:38:00.844Z,17.53
2019-02-05T12:40:32.158Z,15.47
2019-02-05T12:43:03.659Z,13.73
2019-02-05T12:45:35.475Z,15.87
2019-02-05T12:48:07.746Z,15.93
2019-02-05T12:50:39.864Z,16.23
2019-02-05T12:53:12.523Z,14.93
2019-02-05T12:55:44.014Z,14.77
2019-02-05T12:58:25.744Z,14.03
2019-02-05T13:00:58.579Z,13.13
2019-02-05T13:03:33.169Z,13.20
2019-02-05T13:06:04.629Z,13.50
2019-02-05T13:08:36.017Z,15.27
2019-02-05T13:11:07.791Z,16.63
2019-02-05T13:13:39.161Z,18.27
2019-02-05T13:16:10.450Z,18.47
2019-02-05T13:19:22.209Z,18.10
2019-02-05T13:22:04.941Z,20.77
2019-02-05T13:24:49.242Z,19.33
2019-02-05T13:27:26.795Z,20.10
2019-02-05T13:30:02.166Z,19.83
2019-02-05T13:32:37.128Z,20.53
2019-02-05T13:35:09.891Z,23.00
2019-02-05T13:37:41.200Z,23.03
2019-02-05T13:40:17.827Z,22.90
2019-02-05T13:42:49.340Z,21.57
2019-02-05T13:45:24.871Z,23.00
2019-02-05T13:47:56.267Z,22.87
2019-02-05T13:50:33.751Z,21.90
2019-02-05T13:53:05.575Z,22.63
2019-02-05T13:55:41.299Z,23.13
2019-02-05T13:58:15.629Z,21.93
2019-02-05T14:00:55.152Z,18.13
2019-02-05T14:03:26.631Z,19.60
2019-02-05T14:05:57.963Z,21.13
2019-02-05T14:08:29.161Z,20.30
2019-02-05T14:11:00.434Z,20.93
2019-02-05T14:13:51.097Z,19.47
2019-02-05T14:16:22.656Z,18.67
2019-02-05T14:18:55.669Z,20.50
2019-02-05T14:21:26.848Z,17.80
2019-02-05T14:23:58.046Z,21.17
2019-02-05T14:26:29.362Z,21.50
2019-02-05T14:29:00.665Z,18.57
2019-02-05T14:31:31.902Z,20.30
2019-02-05T14:34:03.472Z,19.30
2019-02-05T14:36:34.970Z,18.97
2019-02-05T14:39:11.023Z,19.03
2019-02-05T14:41:42.241Z,19.83
2019-02-05T14:44:13.619Z,22.67
2019-02-05T14:46:44.954Z,21.40
2019-02-05T14:49:16.269Z,20.97
2019-02-05T14:51:47.599Z,22.63
2019-02-05T14:54:18.918Z,21.03
2019-02-05T14:56:50.242Z,25.40
2019-02-05T14:59:21.468Z,23.30
2019-02-05T15:01:52.843Z,24.30
2019-02-05T15:04:24.141Z,23.30
2019-02-05T15:06:55.606Z,26.30
2019-02-05T15:09:30.197Z,24.87
2019-02-05T15:12:01.724Z,24.43
2019-02-05T15:14:34.396Z,24.03
2019-02-05T15:17:06.508Z,23.83
2019-02-05T15:19:38.090Z,24.70
2019-02-05T15:22:09.530Z,22.80
2019-02-05T15:24:41.077Z,23.57
2019-02-05T15:27:12.636Z,25.07
2019-02-05T15:29:52.644Z,24.70
2019-02-05T15:32:47.781Z,21.20
2019-02-05T15:35:19.163Z,21.27
2019-02-05T15:37:50.539Z,21.00
2019-02-05T15:40:22.008Z,20.60
2019-02-05T15:42:53.333Z,22.63
2019-02-05T15:45:28.352Z,22.47
2019-02-05T15:47:59.671Z,22.10
2019-02-05T15:50:31.034Z,21.20
2019-02-05T15:53:02.455Z,23.00
2019-02-05T15:55:33.738Z,19.87
2019-02-05T15:58:05.673Z,19.77
2019-02-05T16:00:37.200Z,20.10
2019-02-05T16:03:10.112Z,20.27
2019-02-05T16:05:41.721Z,18.83
2019-02-05T16:08:13.127Z,21.70
2019-02-05T16:10:44.766Z,19.47
2019-02-05T16:13:16.133Z,19.73
2019-02-05T16:15:47.503Z,19.70
2019-02-05T16:18:19.877Z,20.50
2019-02-05T16:20:51.237Z,17.63
2019-02-05T16:23:23.133Z,20.00
2019-02-05T16:26:13.414Z,17.40
2019-02-05T16:28:47.920Z,17.80
2019-02-05T16:31:27.835Z,16.27
2019-02-05T16:33:58.355Z,16.73
2019-02-05T16:36:32.805Z,15.57
2019-02-05T16:39:06.400Z,16.83
2019-02-05T16:41:38.662Z,16.57
2019-02-05T16:44:10.244Z,14.70
2019-02-05T16:46:41.844Z,16.60
2019-02-05T16:49:13.192Z,14.93
2019-02-05T16:51:44.477Z,16.53
2019-02-05T16:54:15.842Z,32.77
2019-02-05T16:56:47.229Z,17.80
2019-02-05T16:59:18.690Z,16.97
2019-02-05T17:01:50.131Z,16.47
2019-02-05T17:04:21.514Z,18.20
2019-02-05T17:06:52.835Z,16.67
2019-02-05T17:09:24.547Z,17.17
2019-02-05T17:11:56.958Z,17.27
2019-02-05T17:14:28.499Z,19.87
2019-02-05T17:16:59.859Z,19.70
2019-02-05T17:19:31.912Z,16.30
2019-02-05T17:22:03.454Z,18.23
2019-02-05T17:24:34.796Z,16.70
2019-02-05T17:27:06.326Z,18.10
2019-02-05T17:29:38.031Z,17.87
2019-02-05T17:32:09.421Z,18.03
2019-02-05T17:34:41.102Z,17.63
2019-02-05T17:37:15.030Z,17.47
2019-02-05T17:39:46.542Z,17.33
2019-02-05T17:42:18.701Z,16.93
2019-02-05T17:44:50.201Z,16.77
2019-02-05T17:47:21.743Z,18.60
2019-02-05T17:49:53.203Z,16.83
2019-02-05T17:52:24.486Z,17.33
2019-02-05T17:54:55.937Z,17.40
2019-02-05T17:57:27.513Z,19.10
2019-02-05T17:59:59.228Z,18.60
2019-02-05T18:02:30.653Z,19.53
2019-02-05T18:05:15.517Z,16.50
2019-02-05T18:07:47.589Z,16.37
2019-02-05T18:10:22.527Z,18.00
2019-02-05T18:12:53.948Z,18.97
2019-02-05T18:15:29.315Z,19.67
2019-02-05T18:18:00.772Z,17.20
2019-02-05T18:20:32.149Z,19.90
2019-02-05T18:23:03.555Z,18.77
2019-02-05T18:25:34.809Z,20.07
2019-02-05T18:28:06.945Z,17.90
2019-02-05T18:30:39.721Z,18.83
2019-02-05T18:33:11.420Z,21.70
2019-02-05T18:35:42.752Z,20.07
2019-02-05T18:38:16.278Z,18.63
2019-02-05T18:40:47.859Z,18.03
2019-02-05T18:43:19.221Z,17.20
2019-02-05T18:45:50.963Z,19.07
2019-02-05T18:48:22.339Z,19.13
2019-02-05T18:50:53.680Z,19.60
2019-02-05T18:53:25.147Z,19.70
2019-02-05T18:55:56.536Z,18.70
2019-02-05T18:58:27.946Z,16.73
2019-02-05T19:00:59.300Z,18.73
2019-02-05T19:03:30.638Z,18.50
2019-02-05T19:06:02.061Z,18.30
2019-02-05T19:08:33.460Z,18.40
2019-02-05T19:11:04.780Z,16.17
2019-02-05T19:13:36.135Z,18.53
2019-02-05T19:16:08.155Z,16.80
2019-02-05T19:18:39.496Z,17.00
2019-02-05T19:21:10.900Z,17.53
2019-02-05T19:23:42.123Z,17.87
2019-02-05T19:26:16.864Z,18.33
2019-02-05T19:28:48.215Z,17.67
2019-02-05T19:31:38.426Z,17.33
2019-02-05T19:34:10.344Z,17.40
2019-02-05T19:36:41.917Z,18.57
2019-02-05T19:39:13.354Z,18.10
2019-02-05T19:41:52.288Z,15.60
2019-02-05T19:44:23.699Z,17.70
2019-02-05T19:47:00.796Z,17.97
2019-02-05T19:49:37.682Z,18.60
2019-02-05T19:52:09.459Z,17.87
2019-02-05T19:54:41.037Z,17.80
2019-02-05T19:57:14.826Z,15.83
2019-02-05T19:59:49.444Z,16.07
2019-02-05T20:02:21.051Z,16.80
2019-02-05T20:04:52.461Z,17.50
2019-02-05T20:07:24.039Z,16.33
2019-02-05T20:09:55.395Z,18.53
2019-02-05T20:12:27.198Z,17.33
2019-02-05T20:15:00.333Z,17.87
2019-02-05T20:17:33.336Z,19.57
2019-02-05T20:20:05.385Z,18.67
2019-02-05T20:22:36.744Z,21.00
2019-02-05T20:25:11.932Z,19.47
2019-02-05T20:27:43.503Z,17.70
2019-02-05T20:30:17.218Z,18.27
2019-02-05T20:32:48.778Z,19.30
2019-02-05T20:35:23.584Z,19.67
2019-02-05T20:37:55.469Z,21.10
2019-02-05T20:40:27.038Z,21.43
2019-02-05T20:42:58.546Z,20.13
2019-02-05T20:45:30.003Z,20.13
2019-02-05T20:48:01.559Z,21.47
2019-02-05T20:50:33.012Z,22.17
2019-02-05T20:53:13.432Z,20.20
2019-02-05T20:55:37.725Z,21.67
2019-02-05T20:58:09.509Z,21.50
2019-02-05T21:00:41.017Z,23.90
2019-02-05T21:03:12.543Z,20.90
2019-02-05T21:05:44.353Z,22.03
2019-02-05T21:08:15.994Z,21.53
2019-02-05T21:10:47.843Z,22.90
2019-02-05T21:13:19.389Z,25.03
2019-02-05T21:15:50.858Z,29.57
2019-02-05T21:18:22.709Z,27.37
2019-02-05T21:20:54.215Z,28.90
2019-02-05T21:23:25.650Z,24.67
2019-02-05T21:25:57.125Z,22.90
2019-02-05T21:28:28.526Z,24.80
2019-02-05T21:31:00.091Z,22.47
2019-02-05T21:33:31.430Z,21.70
2019-02-05T21:36:02.832Z,23.20
2019-02-05T21:38:34.145Z,20.00
2019-02-05T21:41:05.686Z,21.63
2019-02-05T21:43:37.118Z,22.07
2019-02-05T21:46:08.881Z,20.47
2019-02-05T21:48:40.256Z,20.23
2019-02-05T21:53:48.000Z,21.87
2019-02-05T21:56:19.450Z,21.60
2019-02-05T21:58:51.058Z,21.50
2019-02-05T22:01:22.552Z,22.57
2019-02-05T22:03:53.897Z,19.27
2019-02-05T22:06:25.257Z,20.60
2019-02-05T22:08:56.611Z,22.70
2019-02-05T22:11:28.120Z,19.87
2019-02-05T22:13:59.419Z,19.40
2019-02-05T22:16:30.818Z,19.20
2019-02-05T22:19:02.027Z,20.30
2019-02-05T22:21:33.759Z,20.43
2019-02-05T22:24:05.650Z,19.50
2019-02-05T22:26:38.519Z,21.83
2019-02-05T22:29:10.448Z,19.20
2019-02-05T22:31:41.779Z,18.40
2019-02-05T22:34:13.565Z,18.70
2019-02-05T22:36:45.025Z,19.23
2019-02-05T22:39:19.151Z,21.40
2019-02-05T22:41:50.526Z,20.90
2019-02-05T22:44:21.900Z,20.50
2019-02-05T22:46:53.426Z,23.20
2019-02-05T22:49:24.727Z,22.97
2019-02-05T22:51:57.518Z,22.57
2019-02-05T22:54:28.818Z,22.00
2019-02-05T22:57:00.247Z,21.47
2019-02-05T22:59:31.938Z,21.67
2019-02-05T23:02:05.703Z,19.93
2019-02-05T23:05:11.504Z,21.30
2019-02-05T23:07:42.840Z,17.70
2019-02-05T23:11:19.528Z,19.60
2019-02-05T23:13:50.839Z,18.07
2019-02-05T23:16:22.233Z,16.10
2019-02-05T23:18:53.584Z,18.07
2019-02-05T23:21:24.911Z,19.23
2019-02-05T23:23:56.139Z,18.60
2019-02-05T23:26:27.441Z,18.20
2019-02-05T23:28:58.614Z,18.77
2019-02-05T23:31:30.962Z,16.60
2019-02-05T23:34:02.271Z,17.23
2019-02-05T23:36:33.584Z,18.83
2019-02-05T23:39:05.611Z,17.07
2019-02-05T23:41:36.911Z,17.57
2019-02-05T23:44:08.309Z,17.40
2019-02-05T23:46:39.553Z,17.60
2019-02-05T23:49:10.915Z,17.10
2019-02-05T23:51:42.190Z,18.00
2019-02-05T23:54:13.500Z,18.53
2019-02-05T23:56:44.834Z,17.30
2019-02-05T23:59:16.176Z,20.53
